Terminal Aerodrome Forecast
Issued by NWS

Home | Current Version | Previous Version | Graphics & Text | Print | Product List | Glossary On
Versions: 1 2 3 4 5 6 7 8 9 10 11 12 13 14 15 16 17
328
FTUS43 KICT 200522
TAFCNU
TAF
KCNU 200522Z 2006/2106 18013KT P6SM BKN250
     FM200900 18013KT P6SM BKN010
     FM201200 18013KT 5SM BR OVC008
     FM201800 17013KT P6SM OVC014
     FM210000 15009KT P6SM OVC008=

USA.gov is the U.S. government's official web portal to all federal, state and local government web resources and services.